x

Destruction Island, Wa (desw1) Weather Station

2:00 - Tue 25th Apr 2017 All times are PDT. -7 hours from GMT.

  • Wind
    24mph, 28mph gusts
  • Ar Temp 51°f
  • Sea Pressure 1011mb
  • Destruction Island, Wa
  • Destruction Island, Wa

More Historic Weather Station data

Upgrade to MSW Pro to gain access to the past 30 days of data for over 8000 Wavebouys and Weather Stations around the globe.

Join Pro

Comparision Forecast

View Surf forecast
   
Ter 04/25 2:00 24 28 mph 1011mb 51f
1:00 23 25 mph 1011.7mb 49f
12:00 23 25 mph 1012.3mb 50f
11:00 24 28 mph 1012.7mb 49f
10:00 24 26 mph 1012.9mb 47f
9:00 22 24 mph 1012.4mb 47f
8:00 23 24 mph 1012.5mb 47f
7:00 21 24 mph 1013.9mb 47f
6:00 16 18 mph 1013.8mb 47f
5:00 17 20 mph 1013.4mb 47f
4:00 15
mph
1013.4mb 48f
3:00 17 20 mph 1013.7mb 50f
2:00 17 20 mph 1014.2mb 50f
1:00 9 11 mph 1013.5mb 49f
12:00 5 6 mph 1013.2mb 49f
Seg 04/24 11:00 7 8 mph 1013mb 49f
10:00 11 13 mph 1013.2mb 50f
9:00 17 20 mph 1012.6mb 50f
8:00 22 24 mph 1010.9mb 50f
7:00 25 26 mph 1010.2mb 51f
6:00 29 31 mph 1009.5mb 51f
5:00 29 32 mph 1008.9mb 51f
4:00 28 32 mph 1008.5mb 51f
3:00 32 34 mph 1008.2mb 51f
2:00 32 34 mph 1007.5mb 51f
1:00 25 28 mph 1007.3mb 50f
12:00 20 23 mph 1007mb 51f
11:00 16 17 mph 1006.7mb 49f
10:00 11 14 mph 1006.5mb 49f
9:00 8 9 mph 1006.4mb 48f
8:00 5 7 mph 1006.3mb 45f
7:00 9 10 mph 1006mb 44f
6:00 15 16 mph 1005.6mb 46f
5:00 18 20 mph 1005.9mb 46f
4:00 17 21 mph 1006.2mb 46f
3:00 18 20 mph 1006.5mb 46f
2:00 18 21 mph 1006.8mb 46f
1:00 16 17 mph 1007.4mb 46f
12:00 17 18 mph 1007.7mb 46f
Dom 04/23 11:00 17 18 mph 1008.1mb 46f
10:00 13 14 mph 1008.4mb 47f
9:00 16 20 mph 1008.3mb 48f
8:00 18 20 mph 1008.3mb 48f
7:00 17 20 mph 1008.4mb 48f
6:00 18 22 mph 1008.7mb 48f
5:00 17 23 mph 1009mb 49f
4:00 18 22 mph 1009.2mb 49f
3:00 22 24 mph 1009.3mb 49f
2:00 24 25 mph 1009.3mb 48f
1:00 22 26 mph 1009.2mb 49f
12:00 28 31 mph 1009.1mb 49f
11:00 23 24 mph 1009.2mb 48f
10:00 25 28 mph 1009.6mb 48f
9:00 21 23 mph 1010.1mb 48f
8:00 20 21 mph 1010.6mb 48f
7:00 16 17 mph 1011.1mb 48f
6:00 11 13 mph 1011.7mb 49f
5:00 14 15 mph 1012.3mb 48f
4:00 14 17 mph 1012.7mb 49f
3:00 6 7 mph 1013.5mb 49f
2:00 18 20 mph 1013.9mb 49f
1:00 14 16 mph 1013.9mb 50f
12:00 14
mph
1013.8mb 49f
Sáb 04/22 11:00 16 17 mph 1013.8mb 49f
10:00 17 18 mph 1013.6mb 49f
9:00 23 26 mph 1013.4mb 50f
8:00 22 24 mph 1012.9mb 50f
7:00 24 26 mph 1012.5mb 50f
6:00 29 32 mph 1012.2mb 50f
5:00 32 36 mph 1011.8mb 51f
4:00 34 38 mph 1011.2mb 51f
3:00 33 37 mph 1010.2mb 51f
2:00 30 34 mph 1008.4mb 51f
1:00 31 34 mph 1007.6mb 51f
12:00 25 28 mph 1008mb 50f
11:00 32 37 mph 1008.2mb 49f
10:00 28 31 mph 1008.6mb 49f
9:00 32 38 mph 1008.2mb 50f
8:00 30 36 mph 1006.4mb 55f
7:00 6 8 mph 1006mb 53f
6:00 8 10 mph 1005.6mb 54f
5:00 1 6 mph 1006.5mb 56f
4:00 5 7 mph 1007.5mb 56f
3:00 13 17 mph 1008.5mb 55f
2:00 9 10 mph 1010mb 56f
1:00 11 14 mph 1011.2mb 54f
12:00 11 13 mph 1011.8mb 55f
Sex 04/21 11:00 15 16 mph 1013.1mb 54f